BAW25 EDDH-EGLL
Flight info
| Callsign | BAW25 |
|---|---|
| Flight time | N/A |
| Altitude | 38000 |
| Route | WSN5C/05 WSN N125 ITMIZ DCT ABNED L980 LOGAN |
| Aircraft | B772/H-SDE2E3FGHIJ5LORVWXY/LB1D1 |
Departure
| Time | 2026-05-06 14:44 |
|---|---|
| Airport | Hamburg Helmut Schmidt Airport (EDDH) |
Arrival
| Time | N/A |
|---|---|
| Airport | London Heathrow Airport (EGLL) |
| Time | Latitude | Longitude | Altitude | Speed | Heading |
|---|---|---|---|---|---|
| 2026-05-06 13:43 | 53.63308 | 10.00015 | 47 ft | 0 kts | 143° |
| 2026-05-06 14:16 | 53.63322 | 9.99996 | 47 ft | 4 kts | 145° |
| 2026-05-06 14:16 | 53.63342 | 9.99973 | 48 ft | 3 kts | 144° |
| 2026-05-06 14:16 | 53.63364 | 9.99955 | 47 ft | 4 kts | 185° |
| 2026-05-06 14:16 | 53.63377 | 9.99962 | 47 ft | 0 kts | 225° |
| 2026-05-06 14:19 | 53.63384 | 9.99975 | 47 ft | 4 kts | 232° |
| 2026-05-06 14:19 | 53.63394 | 9.99996 | 47 ft | 1 kts | 230° |
| 2026-05-06 14:20 | 53.63396 | 9.99999 | 47 ft | 0 kts | 230° |
| 2026-05-06 14:25 | 53.63369 | 9.99948 | 49 ft | 14 kts | 229° |
| 2026-05-06 14:25 | 53.63307 | 9.99823 | 51 ft | 14 kts | 230° |
| 2026-05-06 14:26 | 53.63223 | 9.99771 | 49 ft | 14 kts | 161° |
| 2026-05-06 14:26 | 53.63160 | 9.99819 | 48 ft | 10 kts | 153° |
| 2026-05-06 14:26 | 53.63100 | 9.99870 | 50 ft | 10 kts | 153° |
| 2026-05-06 14:26 | 53.63029 | 9.99931 | 48 ft | 13 kts | 153° |
| 2026-05-06 14:27 | 53.62949 | 9.99989 | 50 ft | 10 kts | 174° |
| 2026-05-06 14:27 | 53.62904 | 9.99936 | 49 ft | 8 kts | 234° |
| 2026-05-06 14:27 | 53.62900 | 9.99924 | 50 ft | 0 kts | 240° |
| 2026-05-06 14:30 | 53.62897 | 9.99914 | 49 ft | 0 kts | 242° |
| 2026-05-06 14:41 | 53.62896 | 9.99912 | 55 ft | 4 kts | 242° |
| 2026-05-06 14:41 | 53.62858 | 9.99784 | 50 ft | 10 kts | 256° |
| 2026-05-06 14:41 | 53.62879 | 9.99733 | 48 ft | 0 kts | 330° |
| 2026-05-06 14:43 | 53.62977 | 9.99646 | 49 ft | 56 kts | 333° |
| 2026-05-06 14:44 | 53.63619 | 9.99095 | 48 ft | 149 kts | 331° |
| 2026-05-06 14:44 | 53.64681 | 9.98254 | 681 ft | 171 kts | 335° |
| 2026-05-06 14:44 | 53.65759 | 9.97256 | 1627 ft | 191 kts | 336° |
| 2026-05-06 14:45 | 53.68361 | 9.94934 | 2568 ft | 239 kts | 337° |
| 2026-05-06 14:45 | 53.69845 | 9.93493 | 3037 ft | 254 kts | 327° |
| 2026-05-06 14:45 | 53.70959 | 9.91074 | 3665 ft | 273 kts | 294° |
| 2026-05-06 14:45 | 53.71137 | 9.87855 | 4457 ft | 281 kts | 258° |
| 2026-05-06 14:46 | 53.70531 | 9.84754 | 5263 ft | 279 kts | 250° |
| 2026-05-06 14:46 | 53.69911 | 9.81633 | 6038 ft | 282 kts | 252° |
| 2026-05-06 14:46 | 53.69302 | 9.78476 | 6868 ft | 283 kts | 252° |
| 2026-05-06 14:46 | 53.68683 | 9.75308 | 7648 ft | 283 kts | 252° |
| 2026-05-06 14:47 | 53.68065 | 9.72157 | 8404 ft | 287 kts | 252° |
| 2026-05-06 14:47 | 53.67438 | 9.68966 | 9087 ft | 290 kts | 251° |
| 2026-05-06 14:47 | 53.66807 | 9.65770 | 9769 ft | 289 kts | 252° |
| 2026-05-06 14:47 | 53.66166 | 9.62532 | 9882 ft | 294 kts | 251° |
| 2026-05-06 14:48 | 53.65447 | 9.59297 | 9891 ft | 295 kts | 248° |
| 2026-05-06 14:48 | 53.64663 | 9.56099 | 9882 ft | 295 kts | 247° |
| 2026-05-06 14:48 | 53.63870 | 9.52919 | 9881 ft | 295 kts | 247° |
| 2026-05-06 14:48 | 53.63069 | 9.49720 | 9878 ft | 295 kts | 247° |
| 2026-05-06 14:49 | 53.62276 | 9.46539 | 9877 ft | 294 kts | 247° |
| 2026-05-06 14:49 | 53.61479 | 9.43335 | 9885 ft | 297 kts | 246° |
| 2026-05-06 14:49 | 53.60688 | 9.40141 | 10141 ft | 295 kts | 246° |
| 2026-05-06 14:49 | 53.59900 | 9.36954 | 10685 ft | 296 kts | 246° |
| 2026-05-06 14:50 | 53.59095 | 9.33703 | 11185 ft | 302 kts | 247° |
| 2026-05-06 14:50 | 53.58287 | 9.30436 | 11711 ft | 304 kts | 246° |
| 2026-05-06 14:50 | 53.57471 | 9.27134 | 12223 ft | 305 kts | 246° |
| 2026-05-06 14:50 | 53.56664 | 9.23874 | 12740 ft | 305 kts | 246° |
| 2026-05-06 14:51 | 53.55846 | 9.20568 | 13272 ft | 307 kts | 246° |
| 2026-05-06 14:51 | 53.55017 | 9.17225 | 13802 ft | 311 kts | 246° |
| 2026-05-06 14:51 | 53.54179 | 9.13852 | 14304 ft | 313 kts | 246° |
| 2026-05-06 14:51 | 53.53336 | 9.10467 | 14788 ft | 315 kts | 246° |
| 2026-05-06 14:52 | 53.52488 | 9.07061 | 15289 ft | 316 kts | 245° |
| 2026-05-06 14:52 | 53.51640 | 9.03663 | 15790 ft | 316 kts | 245° |
| 2026-05-06 14:52 | 53.50789 | 9.00254 | 16308 ft | 317 kts | 245° |
| 2026-05-06 14:52 | 53.49933 | 8.96832 | 16843 ft | 317 kts | 245° |
| 2026-05-06 14:53 | 53.49076 | 8.93412 | 17395 ft | 319 kts | 245° |
| 2026-05-06 14:53 | 53.48211 | 8.89967 | 17932 ft | 321 kts | 245° |
| 2026-05-06 14:53 | 53.47340 | 8.86502 | 18438 ft | 323 kts | 245° |
| 2026-05-06 14:53 | 53.46475 | 8.83066 | 18923 ft | 324 kts | 245° |
| 2026-05-06 14:54 | 53.45592 | 8.79566 | 19393 ft | 326 kts | 245° |
| 2026-05-06 14:54 | 53.44705 | 8.76052 | 19875 ft | 327 kts | 246° |
| 2026-05-06 14:54 | 53.43815 | 8.72534 | 20374 ft | 329 kts | 246° |
| 2026-05-06 14:54 | 53.42917 | 8.68992 | 20890 ft | 331 kts | 246° |
| 2026-05-06 14:55 | 53.42012 | 8.65423 | 21412 ft | 334 kts | 246° |
| 2026-05-06 14:55 | 53.41100 | 8.61837 | 21935 ft | 336 kts | 246° |
| 2026-05-06 14:55 | 53.40178 | 8.58214 | 22494 ft | 340 kts | 246° |
| 2026-05-06 14:55 | 53.39242 | 8.54544 | 23053 ft | 343 kts | 246° |
| 2026-05-06 14:56 | 53.38301 | 8.50858 | 23590 ft | 346 kts | 246° |
| 2026-05-06 14:56 | 53.37349 | 8.47141 | 24050 ft | 349 kts | 246° |
| 2026-05-06 14:56 | 53.36389 | 8.43392 | 24526 ft | 350 kts | 246° |
| 2026-05-06 14:56 | 53.35424 | 8.39632 | 25019 ft | 352 kts | 246° |
| 2026-05-06 14:57 | 53.34453 | 8.35857 | 25494 ft | 353 kts | 246° |
| 2026-05-06 14:57 | 53.33494 | 8.32131 | 26003 ft | 355 kts | 245° |
| 2026-05-06 14:57 | 53.32513 | 8.28329 | 26511 ft | 356 kts | 245° |
| 2026-05-06 14:57 | 53.31529 | 8.24522 | 27028 ft | 357 kts | 245° |
| 2026-05-06 14:58 | 53.30541 | 8.20703 | 27560 ft | 358 kts | 245° |
| 2026-05-06 14:58 | 53.29551 | 8.16884 | 28096 ft | 358 kts | 245° |
| 2026-05-06 14:58 | 53.28556 | 8.13053 | 28633 ft | 358 kts | 245° |
| 2026-05-06 14:58 | 53.27562 | 8.09233 | 29182 ft | 358 kts | 245° |
| 2026-05-06 14:59 | 53.26569 | 8.05426 | 29741 ft | 357 kts | 245° |
| 2026-05-06 14:59 | 53.25579 | 8.01631 | 30255 ft | 355 kts | 245° |
| 2026-05-06 14:59 | 53.24596 | 7.97871 | 30739 ft | 352 kts | 245° |
| 2026-05-06 14:59 | 53.23616 | 7.94129 | 31233 ft | 350 kts | 245° |
| 2026-05-06 15:00 | 53.22639 | 7.90408 | 31542 ft | 353 kts | 245° |
| 2026-05-06 15:00 | 53.21625 | 7.86556 | 31329 ft | 373 kts | 245° |
| 2026-05-06 15:00 | 53.20550 | 7.82479 | 31001 ft | 393 kts | 245° |
| 2026-05-06 15:01 | 53.18363 | 7.74195 | 30898 ft | 390 kts | 245° |
| 2026-05-06 15:01 | 53.16197 | 7.66006 | 30890 ft | 384 kts | 244° |
| 2026-05-06 15:01 | 53.15124 | 7.61964 | 31073 ft | 379 kts | 244° |
| 2026-05-06 15:02 | 53.14058 | 7.57956 | 31527 ft | 377 kts | 244° |
| 2026-05-06 15:02 | 53.12991 | 7.53954 | 32000 ft | 377 kts | 244° |
| 2026-05-06 15:02 | 53.11925 | 7.49964 | 32482 ft | 377 kts | 244° |
| 2026-05-06 15:02 | 53.10858 | 7.45974 | 32954 ft | 376 kts | 245° |
| 2026-05-06 15:03 | 53.09794 | 7.42007 | 33440 ft | 375 kts | 245° |
| 2026-05-06 15:03 | 53.08731 | 7.38045 | 33937 ft | 373 kts | 245° |
| 2026-05-06 15:03 | 53.07673 | 7.34114 | 34338 ft | 371 kts | 245° |
| 2026-05-06 15:03 | 53.06633 | 7.30250 | 34742 ft | 369 kts | 245° |
| 2026-05-06 15:04 | 53.05586 | 7.26371 | 35165 ft | 366 kts | 244° |
| 2026-05-06 15:04 | 53.04547 | 7.22525 | 35587 ft | 363 kts | 244° |
| 2026-05-06 15:04 | 53.03516 | 7.18718 | 36001 ft | 359 kts | 244° |
| 2026-05-06 15:04 | 53.02496 | 7.14956 | 36426 ft | 354 kts | 244° |
| 2026-05-06 15:05 | 53.01491 | 7.11253 | 36874 ft | 349 kts | 244° |
| 2026-05-06 15:05 | 53.00495 | 7.07591 | 37189 ft | 346 kts | 244° |
| 2026-05-06 15:05 | 52.99503 | 7.03952 | 37392 ft | 346 kts | 244° |
| 2026-05-06 15:06 | 52.97488 | 6.96581 | 37510 ft | 354 kts | 244° |
| 2026-05-06 15:06 | 52.96462 | 6.92836 | 37633 ft | 356 kts | 244° |
| 2026-05-06 15:06 | 52.95431 | 6.89078 | 37761 ft | 359 kts | 244° |
| 2026-05-06 15:07 | 52.93349 | 6.81506 | 37926 ft | 369 kts | 244° |
| 2026-05-06 15:07 | 52.91178 | 6.73638 | 37925 ft | 382 kts | 244° |
| 2026-05-06 15:08 | 52.88924 | 6.65495 | 37926 ft | 396 kts | 244° |
| 2026-05-06 15:08 | 52.86968 | 6.58452 | 37923 ft | 407 kts | 244° |
| 2026-05-06 15:09 | 52.84571 | 6.49847 | 37922 ft | 421 kts | 244° |
| 2026-05-06 15:09 | 52.82395 | 6.42066 | 37914 ft | 432 kts | 244° |
| 2026-05-06 15:09 | 52.81475 | 6.38801 | 37696 ft | 439 kts | 244° |
| 2026-05-06 15:10 | 52.80165 | 6.34205 | 37492 ft | 445 kts | 244° |
| 2026-05-06 15:10 | 52.78858 | 6.29587 | 37745 ft | 441 kts | 244° |
| 2026-05-06 15:10 | 52.77578 | 6.25026 | 38159 ft | 434 kts | 244° |
| 2026-05-06 15:10 | 52.76320 | 6.20538 | 38530 ft | 428 kts | 244° |
| 2026-05-06 15:11 | 52.75066 | 6.16076 | 38546 ft | 430 kts | 244° |
| 2026-05-06 15:11 | 52.73790 | 6.11556 | 38290 ft | 437 kts | 244° |
| 2026-05-06 15:11 | 52.72500 | 6.07002 | 38364 ft | 437 kts | 244° |
| 2026-05-06 15:11 | 52.71229 | 6.02530 | 38518 ft | 437 kts | 244° |
| 2026-05-06 15:12 | 52.69916 | 5.97921 | 38455 ft | 439 kts | 244° |
| 2026-05-06 15:12 | 52.67317 | 5.88835 | 38460 ft | 442 kts | 244° |
| 2026-05-06 15:13 | 52.64676 | 5.79635 | 38470 ft | 445 kts | 244° |
| 2026-05-06 15:13 | 52.62004 | 5.70366 | 38343 ft | 451 kts | 244° |
| 2026-05-06 15:13 | 52.60651 | 5.65685 | 38067 ft | 456 kts | 244° |
| 2026-05-06 15:14 | 52.59307 | 5.61043 | 37868 ft | 451 kts | 244° |
| 2026-05-06 15:14 | 52.56603 | 5.51733 | 37903 ft | 451 kts | 244° |
| 2026-05-06 15:15 | 52.53876 | 5.42384 | 37903 ft | 455 kts | 244° |
| 2026-05-06 15:15 | 52.51119 | 5.32969 | 37899 ft | 458 kts | 244° |
| 2026-05-06 15:16 | 52.48338 | 5.23508 | 37902 ft | 461 kts | 243° |
| 2026-05-06 15:16 | 52.45539 | 5.14023 | 37900 ft | 462 kts | 243° |
| 2026-05-06 15:17 | 52.42744 | 5.04590 | 37893 ft | 463 kts | 243° |
| 2026-05-06 15:17 | 52.39926 | 4.95115 | 37907 ft | 462 kts | 243° |
| 2026-05-06 15:18 | 52.37097 | 4.85644 | 37901 ft | 462 kts | 243° |
| 2026-05-06 15:18 | 52.34274 | 4.76227 | 37907 ft | 460 kts | 243° |
| 2026-05-06 15:19 | 52.31448 | 4.66841 | 37887 ft | 459 kts | 243° |
| 2026-05-06 15:19 | 52.28627 | 4.57504 | 37876 ft | 458 kts | 243° |
| 2026-05-06 15:20 | 52.25814 | 4.48229 | 37907 ft | 457 kts | 243° |
| 2026-05-06 15:20 | 52.22987 | 4.38947 | 37889 ft | 456 kts | 243° |
| 2026-05-06 15:21 | 52.20157 | 4.29689 | 37882 ft | 456 kts | 243° |
| 2026-05-06 15:21 | 52.17326 | 4.20465 | 37903 ft | 455 kts | 243° |
| 2026-05-06 15:22 | 52.14471 | 4.11255 | 37910 ft | 455 kts | 243° |
| 2026-05-06 15:22 | 52.11623 | 4.02041 | 37910 ft | 456 kts | 243° |
| 2026-05-06 15:23 | 52.08775 | 3.92829 | 37910 ft | 456 kts | 243° |
| 2026-05-06 15:23 | 52.05926 | 3.83665 | 37902 ft | 457 kts | 243° |
| 2026-05-06 15:24 | 52.03049 | 3.74463 | 37900 ft | 457 kts | 243° |
| 2026-05-06 15:24 | 52.00163 | 3.65272 | 37908 ft | 457 kts | 243° |
| 2026-05-06 15:25 | 51.97271 | 3.56092 | 37921 ft | 456 kts | 242° |
| 2026-05-06 15:25 | 51.94376 | 3.46937 | 37918 ft | 456 kts | 242° |
| 2026-05-06 15:26 | 51.91471 | 3.37785 | 37932 ft | 457 kts | 242° |
| 2026-05-06 15:26 | 51.88560 | 3.28640 | 37944 ft | 457 kts | 242° |
| 2026-05-06 15:27 | 51.85880 | 3.19321 | 37919 ft | 457 kts | 251° |
| 2026-05-06 15:27 | 51.84331 | 3.09345 | 37929 ft | 459 kts | 261° |
| 2026-05-06 15:28 | 51.83682 | 2.99142 | 37930 ft | 460 kts | 263° |
| 2026-05-06 15:28 | 51.83061 | 2.88850 | 37944 ft | 460 kts | 263° |
| 2026-05-06 15:29 | 51.82392 | 2.78547 | 37941 ft | 461 kts | 263° |
| 2026-05-06 15:29 | 51.81708 | 2.68288 | 37797 ft | 452 kts | 263° |
| 2026-05-06 15:29 | 51.81367 | 2.63256 | 37300 ft | 449 kts | 263° |
| 2026-05-06 15:30 | 51.81023 | 2.58238 | 36698 ft | 448 kts | 263° |
| 2026-05-06 15:30 | 51.80676 | 2.53242 | 36225 ft | 445 kts | 263° |
| 2026-05-06 15:30 | 51.80332 | 2.48298 | 35823 ft | 441 kts | 263° |
| 2026-05-06 15:30 | 51.79989 | 2.43402 | 35422 ft | 437 kts | 263° |
| 2026-05-06 15:31 | 51.79648 | 2.38549 | 35033 ft | 433 kts | 263° |
| 2026-05-06 15:31 | 51.79309 | 2.33743 | 34631 ft | 429 kts | 263° |
| 2026-05-06 15:31 | 51.78971 | 2.28980 | 34216 ft | 426 kts | 263° |
| 2026-05-06 15:32 | 51.78311 | 2.19583 | 33370 ft | 419 kts | 264° |
| 2026-05-06 15:32 | 51.78030 | 2.14924 | 32967 ft | 414 kts | 264° |
| 2026-05-06 15:32 | 51.77766 | 2.10299 | 32432 ft | 413 kts | 264° |
| 2026-05-06 15:32 | 51.77505 | 2.05683 | 31956 ft | 411 kts | 264° |
| 2026-05-06 15:33 | 51.77241 | 2.01109 | 31569 ft | 407 kts | 264° |
| 2026-05-06 15:33 | 51.76861 | 1.96617 | 31125 ft | 402 kts | 257° |
| 2026-05-06 15:33 | 51.76172 | 1.92256 | 30685 ft | 400 kts | 253° |
| 2026-05-06 15:33 | 51.75374 | 1.87980 | 30255 ft | 397 kts | 252° |
| 2026-05-06 15:34 | 51.74548 | 1.83736 | 29842 ft | 394 kts | 252° |
| 2026-05-06 15:34 | 51.73726 | 1.79543 | 29398 ft | 391 kts | 252° |
| 2026-05-06 15:34 | 51.72904 | 1.75380 | 28941 ft | 388 kts | 251° |
| 2026-05-06 15:34 | 51.72086 | 1.71263 | 28488 ft | 385 kts | 251° |
| 2026-05-06 15:35 | 51.71267 | 1.67163 | 28059 ft | 382 kts | 251° |
| 2026-05-06 15:35 | 51.70450 | 1.63094 | 27623 ft | 380 kts | 251° |
| 2026-05-06 15:35 | 51.69634 | 1.59048 | 27200 ft | 377 kts | 251° |
| 2026-05-06 15:35 | 51.69067 | 1.54978 | 26661 ft | 373 kts | 270° |
| 2026-05-06 15:36 | 51.69561 | 1.50894 | 26122 ft | 377 kts | 291° |
| 2026-05-06 15:36 | 51.70689 | 1.47071 | 25607 ft | 377 kts | 294° |
| 2026-05-06 15:36 | 51.71743 | 1.43247 | 24977 ft | 380 kts | 289° |
| 2026-05-06 15:36 | 51.72454 | 1.39132 | 24280 ft | 383 kts | 279° |
| 2026-05-06 15:37 | 51.72746 | 1.34942 | 23549 ft | 369 kts | 271° |
| 2026-05-06 15:37 | 51.72734 | 1.30869 | 22746 ft | 357 kts | 267° |
| 2026-05-06 15:37 | 51.72564 | 1.26934 | 21938 ft | 347 kts | 265° |
| 2026-05-06 15:37 | 51.72327 | 1.23089 | 21191 ft | 343 kts | 264° |
| 2026-05-06 15:38 | 51.72066 | 1.19268 | 20464 ft | 342 kts | 264° |
| 2026-05-06 15:38 | 51.71800 | 1.15454 | 19745 ft | 342 kts | 264° |
| 2026-05-06 15:38 | 51.71535 | 1.11642 | 19044 ft | 341 kts | 264° |
| 2026-05-06 15:38 | 51.71272 | 1.07851 | 18352 ft | 338 kts | 264° |
| 2026-05-06 15:39 | 51.71017 | 1.04135 | 17559 ft | 329 kts | 264° |
| 2026-05-06 15:39 | 51.70767 | 1.00513 | 16786 ft | 323 kts | 264° |
| 2026-05-06 15:39 | 51.70517 | 0.96908 | 16292 ft | 326 kts | 264° |
| 2026-05-06 15:39 | 51.70264 | 0.93255 | 16178 ft | 327 kts | 264° |
| 2026-05-06 15:40 | 51.70012 | 0.89624 | 15994 ft | 324 kts | 264° |
| 2026-05-06 15:40 | 51.69763 | 0.86061 | 15994 ft | 318 kts | 264° |
| 2026-05-06 15:40 | 51.69516 | 0.82526 | 15982 ft | 316 kts | 264° |
| 2026-05-06 15:40 | 51.69271 | 0.79020 | 15981 ft | 314 kts | 264° |
| 2026-05-06 15:41 | 51.69025 | 0.75514 | 15917 ft | 316 kts | 264° |
| 2026-05-06 15:41 | 51.68774 | 0.71969 | 15516 ft | 321 kts | 264° |
| 2026-05-06 15:41 | 51.68524 | 0.68449 | 15130 ft | 320 kts | 264° |
| 2026-05-06 15:41 | 51.68270 | 0.64903 | 14734 ft | 318 kts | 264° |
| 2026-05-06 15:42 | 51.68015 | 0.61354 | 14341 ft | 317 kts | 264° |
| 2026-05-06 15:42 | 51.67762 | 0.57835 | 13837 ft | 312 kts | 264° |
| 2026-05-06 15:42 | 51.67516 | 0.54444 | 13242 ft | 299 kts | 264° |
| 2026-05-06 15:42 | 51.67277 | 0.51173 | 12666 ft | 288 kts | 265° |
| 2026-05-06 15:43 | 51.67047 | 0.48008 | 12121 ft | 282 kts | 265° |
| 2026-05-06 15:43 | 51.66815 | 0.44837 | 11656 ft | 289 kts | 265° |
| 2026-05-06 15:43 | 51.66576 | 0.41587 | 11208 ft | 294 kts | 265° |
| 2026-05-06 15:43 | 51.66334 | 0.38301 | 10737 ft | 297 kts | 264° |
| 2026-05-06 15:44 | 51.66092 | 0.35054 | 10233 ft | 285 kts | 265° |
| 2026-05-06 15:44 | 51.65857 | 0.31895 | 9797 ft | 285 kts | 266° |
| 2026-05-06 15:44 | 51.65619 | 0.28703 | 9321 ft | 288 kts | 266° |
| 2026-05-06 15:44 | 51.65381 | 0.25482 | 8815 ft | 291 kts | 265° |
| 2026-05-06 15:45 | 51.65137 | 0.22224 | 8329 ft | 294 kts | 264° |
| 2026-05-06 15:45 | 51.64894 | 0.19030 | 8019 ft | 278 kts | 264° |
| 2026-05-06 15:45 | 51.64675 | 0.15971 | 8000 ft | 274 kts | 265° |
| 2026-05-06 15:45 | 51.64489 | 0.12909 | 8015 ft | 282 kts | 266° |
| 2026-05-06 15:46 | 51.64305 | 0.09779 | 8000 ft | 280 kts | 267° |
| 2026-05-06 15:46 | 51.64147 | 0.06678 | 7988 ft | 276 kts | 267° |
| 2026-05-06 15:46 | 51.63987 | 0.03609 | 7992 ft | 274 kts | 267° |
| 2026-05-06 15:46 | 51.63841 | 0.00541 | 7999 ft | 275 kts | 268° |
| 2026-05-06 15:47 | 51.63713 | -0.02537 | 8033 ft | 275 kts | 269° |
| 2026-05-06 15:47 | 51.63575 | -0.05605 | 8034 ft | 275 kts | 267° |
| 2026-05-06 15:47 | 51.63448 | -0.08684 | 8037 ft | 275 kts | 268° |
| 2026-05-06 15:47 | 51.63319 | -0.11756 | 8038 ft | 275 kts | 268° |
| 2026-05-06 15:48 | 51.63177 | -0.14799 | 8035 ft | 267 kts | 267° |
| 2026-05-06 15:48 | 51.63041 | -0.17712 | 7896 ft | 253 kts | 268° |
| 2026-05-06 15:48 | 51.62905 | -0.20467 | 7527 ft | 240 kts | 268° |
| 2026-05-06 15:48 | 51.62772 | -0.23121 | 7223 ft | 236 kts | 268° |
| 2026-05-06 15:49 | 51.62645 | -0.25733 | 7142 ft | 239 kts | 268° |
| 2026-05-06 15:49 | 51.62530 | -0.28408 | 7104 ft | 240 kts | 268° |
| 2026-05-06 15:49 | 51.62408 | -0.31077 | 7050 ft | 238 kts | 268° |
| 2026-05-06 15:49 | 51.62292 | -0.33726 | 7008 ft | 239 kts | 268° |
| 2026-05-06 15:50 | 51.62186 | -0.36413 | 7009 ft | 241 kts | 268° |
| 2026-05-06 15:50 | 51.62079 | -0.39116 | 7007 ft | 243 kts | 267° |
| 2026-05-06 15:50 | 51.61961 | -0.41824 | 6997 ft | 240 kts | 268° |
| 2026-05-06 15:50 | 51.61848 | -0.44488 | 6982 ft | 238 kts | 268° |
| 2026-05-06 15:51 | 51.61726 | -0.47141 | 6997 ft | 238 kts | 268° |
| 2026-05-06 15:51 | 51.61594 | -0.49798 | 6989 ft | 237 kts | 267° |
| 2026-05-06 15:51 | 51.61472 | -0.52402 | 6984 ft | 236 kts | 268° |
| 2026-05-06 15:51 | 51.61356 | -0.55026 | 6986 ft | 235 kts | 267° |
| 2026-05-06 15:52 | 51.61240 | -0.57651 | 7001 ft | 235 kts | 268° |
| 2026-05-06 15:52 | 51.61123 | -0.60318 | 6882 ft | 243 kts | 268° |
| 2026-05-06 15:52 | 51.61007 | -0.63032 | 6499 ft | 242 kts | 267° |
| 2026-05-06 15:52 | 51.60900 | -0.65690 | 6064 ft | 235 kts | 268° |
| 2026-05-06 15:53 | 51.60791 | -0.68296 | 5662 ft | 233 kts | 268° |
| 2026-05-06 15:53 | 51.60676 | -0.70940 | 5322 ft | 239 kts | 267° |
| 2026-05-06 15:53 | 51.60561 | -0.73621 | 4938 ft | 240 kts | 268° |
| 2026-05-06 15:53 | 51.60431 | -0.76245 | 4470 ft | 231 kts | 268° |
| 2026-05-06 15:54 | 51.60284 | -0.77923 | 4156 ft | 228 kts | 255° |
| 2026-05-06 15:54 | 51.59452 | -0.80060 | 4006 ft | 231 kts | 219° |
| 2026-05-06 15:54 | 51.57957 | -0.81197 | 3939 ft | 249 kts | 190° |
| 2026-05-06 15:54 | 51.56233 | -0.81400 | 3593 ft | 245 kts | 181° |
| 2026-05-06 15:55 | 51.54547 | -0.81460 | 3235 ft | 243 kts | 181° |
| 2026-05-06 15:55 | 51.52347 | -0.81536 | 3038 ft | 231 kts | 181° |
| 2026-05-06 15:55 | 51.51281 | -0.81575 | 2982 ft | 222 kts | 180° |
| 2026-05-06 15:55 | 51.49761 | -0.81628 | 3045 ft | 211 kts | 178° |
| 2026-05-06 15:56 | 51.48434 | -0.81099 | 3015 ft | 190 kts | 143° |
| 2026-05-06 15:56 | 51.47686 | -0.79471 | 3033 ft | 183 kts | 99° |
| 2026-05-06 15:56 | 51.47585 | -0.77470 | 2990 ft | 179 kts | 87° |
| 2026-05-06 15:56 | 51.47566 | -0.75468 | 3014 ft | 184 kts | 86° |
| 2026-05-06 15:57 | 51.47569 | -0.73410 | 3002 ft | 182 kts | 85° |
| 2026-05-06 15:57 | 51.47579 | -0.71447 | 2966 ft | 172 kts | 85° |
| 2026-05-06 15:57 | 51.47592 | -0.69561 | 2710 ft | 166 kts | 85° |
| 2026-05-06 15:57 | 51.47605 | -0.67725 | 2500 ft | 163 kts | 84° |
| 2026-05-06 15:58 | 51.47617 | -0.65919 | 2275 ft | 161 kts | 85° |
| 2026-05-06 15:58 | 51.47629 | -0.64120 | 2060 ft | 163 kts | 84° |
| 2026-05-06 15:58 | 51.47642 | -0.62291 | 1847 ft | 164 kts | 85° |